Airfield :
LOGIN :

Register | Disclaimer

   EN    FR    IT 

 










Legend :    VFR   Marginal VFR   IFR   Intensive IFR   Very Intensive IFR
Visi :
Ceiling :
>= 8 km
>= 3000ft
5 to 8 km
1000 to 3000 ft
1500m to 5 km
500 to 1000 ft
800 to 1500m
200 to 500 ft
< 800m
< 200 ft
Symbols :   Thunderstorms  Fog  Heavy snow  Heavy precipitations  Wind > 20 kt
SIGMETs :     Misc.  Thunderstorms  Icing  Turbulence  Mountain Waves  Volcanic Ashes







- Airport Elevation : 194 ft
- IATA code : LME
- Download approach charts


LFRM - Le Mans

CURRENT METAR :
  • 281300Z AUTO 22010KT 180V250 9999 FEW045 SCT062 BKN094 23/12 Q1015 NOSIG

EXPIRED METARs :
  • 281230Z AUTO 23010KT 180V280 9999 FEW047 SCT058 BKN100 24/12 Q1016 NOSIG
  • 281200Z AUTO 21010KT 180V270 9999 FEW043 SCT056 OVC100 24/12 Q1016 NOSIG
  • 281130Z AUTO 22010KT 180V250 9999 SCT040 BKN054 BKN100 23/12 Q1016 NOSIG
  • 281100Z AUTO 21009KT 170V270 9999 BKN038 BKN048 22/12 Q1016 NOSIG
  • 281030Z AUTO 21007KT 170V270 9999 SCT034 SCT040 OVC120 21/13 Q1016 NOSIG

TAF TAF LFRM
Valid from the 28 at 09:00 until the 28 at 18:00 UTC


280800Z 2809/2818 22010KT 9999 BKN012
BECMG 2809/2811 BKN020
No reported NOTAMs for that airfield.



MET'MAP, your aeronautical weather chart ! - Copyright ORBIFLY December 2007 - Disclaimer

ORBIFLY MET'MAP TEAM :

Programming & Development : Alexandra Zaïnal
Concept & Development : Baudouin d'Aumeries
Co-Development & Prog : Marc-Olivier Méhu
Technical & hardware support : Manuel Goepfert

Contact : metmap@orbifly.com




SOURCES & CREDITS :

   NOAA